In Rescue
 
Open Full Screen Window  High Contrast Mode
Wind Gusting 18 knots
11
May 20, 2019 2:44 PM EDT
Weather Information
Wind Direction
  280 °
Wind Speed
  11 kt (13 mph)
Wind Gust
  18 kt (21 mph)
Altimeter
29.98 in
Visibility
10 SM
Temperature
10° C
50° F
Dewpoint
04° C
39° F
Humidity
67%
1hr Rain Fall
00.00 in.
24hr Rain Fall
00.30 in.
Sky Condition
Overcast @ 2,600 ft
MVFR

METAR KOZW 201844Z AUTO 28011G18KT 10SM OVC026 10/04 A2998 RMK AO2 T01030037

FAA Disclaimer: The data displayed is for advisory purposes only and is not to be used for flight planning or operations.